Time;durP1;ratioP1;P1;durP2;ratioP2;P2;SDS_P1;SDS_P2;PMS_P1;PMS_P2;Temp;Humidity;BMP_temperature;BMP_pressure;BME280_temperature;BME280_humidity;BME280_pressure;Samples;Min_cycle;Max_cycle;Signal;HPM_P1;HPM_P2
2021/11/05 00:01:27;;;;;;;4.23;2.57;;;;;;;;;;10483001;28;20471;-80
2021/11/05 00:06:28;;;;;;;6.55;2.53;;;;;;;;;;10465431;28;20461;-81
2021/11/05 00:11:28;;;;;;;10.37;2.90;;;;;;;;;;10473968;28;20344;-81
2021/11/05 00:16:29;;;;;;;5.47;2.78;;;;;;;;;;10464079;28;20447;-81
2021/11/05 00:21:29;;;;;;;5.68;2.78;;;;;;;;;;10484682;28;20046;-80
2021/11/05 00:26:30;;;;;;;5.18;3.08;;;;;;;;;;10498699;28;20145;-80
2021/11/05 00:31:30;;;;;;;5.57;2.30;;;;;;;;;;10494429;28;20502;-81
2021/11/05 00:36:30;;;;;;;3.50;2.60;;;;;;;;;;10494719;28;20439;-81
2021/11/05 00:41:31;;;;;;;6.20;2.50;;;;;;;;;;10500348;28;20454;-81
2021/11/05 00:46:31;;;;;;;3.63;2.33;;;;;;;;;;10494453;28;20499;-82
2021/11/05 00:51:32;;;;;;;4.95;2.50;;;;;;;;;;10486043;28;20453;-81
2021/11/05 00:56:32;;;;;;;5.18;2.92;;;;;;;;;;10499687;28;20037;-81
2021/11/05 01:01:33;;;;;;;4.47;2.60;;;;;;;;;;10499500;28;20033;-80
2021/11/05 01:06:33;;;;;;;9.02;2.97;;;;;;;;;;10499096;28;20541;-81
2021/11/05 01:11:34;;;;;;;3.40;2.47;;;;;;;;;;10499099;28;20111;-80
2021/11/05 01:16:34;;;;;;;6.45;2.72;;;;;;;;;;10489731;28;20087;-80
2021/11/05 01:21:35;;;;;;;6.15;2.33;;;;;;;;;;10489976;28;20030;-81
2021/11/05 01:26:35;;;;;;;4.10;2.33;;;;;;;;;;10480890;28;20017;-81
2021/11/05 01:31:36;;;;;;;2.43;2.20;;;;;;;;;;10486635;28;20460;-81
2021/11/05 01:36:36;;;;;;;6.68;2.40;;;;;;;;;;10485412;28;20434;-81
2021/11/05 01:41:40;;;;;;;6.88;2.50;;;;;;;;;;10495795;28;20028;-81
2021/11/05 01:46:42;;;;;;;3.97;2.30;;;;;;;;;;10483184;28;20135;-81
2021/11/05 01:51:43;;;;;;;3.13;2.08;;;;;;;;;;10482996;28;20450;-81
2021/11/05 01:56:43;;;;;;;3.22;2.13;;;;;;;;;;10497011;28;20032;-80
2021/11/05 02:01:44;;;;;;;4.57;2.30;;;;;;;;;;10497301;28;20039;-81
2021/11/05 02:06:46;;;;;;;5.77;2.33;;;;;;;;;;10488285;28;20383;-81
2021/11/05 02:11:48;;;;;;;3.15;2.22;;;;;;;;;;10488796;28;20454;-81
2021/11/05 02:16:51;;;;;;;3.78;2.00;;;;;;;;;;10488939;28;20371;-80
2021/11/05 02:21:53;;;;;;;8.13;2.30;;;;;;;;;;10486092;28;20090;-81
2021/11/05 02:26:54;;;;;;;4.95;2.42;;;;;;;;;;10482607;28;20376;-81
2021/11/05 02:31:55;;;;;;;3.13;2.03;;;;;;;;;;10488723;28;20032;-80
2021/11/05 02:36:56;;;;;;;4.60;2.33;;;;;;;;;;10484969;28;20104;-81
2021/11/05 02:41:56;;;;;;;2.70;2.05;;;;;;;;;;10479056;28;20050;-81
2021/11/05 02:46:57;;;;;;;4.15;2.20;;;;;;;;;;10496400;28;20083;-81
2021/11/05 02:51:57;;;;;;;3.33;1.90;;;;;;;;;;10496438;28;20032;-79
2021/11/05 02:56:58;;;;;;;2.38;1.70;;;;;;;;;;10494443;28;20033;-80
2021/11/05 03:01:58;;;;;;;3.05;2.20;;;;;;;;;;10496265;28;20121;-80
2021/11/05 03:07:00;;;;;;;2.35;1.98;;;;;;;;;;10485145;28;20029;-80
2021/11/05 03:12:01;;;;;;;6.88;2.22;;;;;;;;;;10478014;28;20037;-82
2021/11/05 03:17:02;;;;;;;3.25;2.10;;;;;;;;;;10477058;28;20111;-81
2021/11/05 03:22:04;;;;;;;4.93;1.63;;;;;;;;;;10495160;28;20043;-81
2021/11/05 03:27:05;;;;;;;3.00;2.33;;;;;;;;;;10495729;28;20035;-81
2021/11/05 03:32:06;;;;;;;2.92;1.90;;;;;;;;;;10487236;28;20128;-81
2021/11/05 03:37:06;;;;;;;2.15;1.70;;;;;;;;;;10486932;28;20041;-81
2021/11/05 03:42:07;;;;;;;3.85;2.28;;;;;;;;;;10479883;28;20033;-81
2021/11/05 03:47:07;;;;;;;4.32;2.13;;;;;;;;;;10470234;28;20045;-81
2021/11/05 03:52:08;;;;;;;3.17;2.10;;;;;;;;;;10498808;28;20043;-81
2021/11/05 03:57:08;;;;;;;3.03;1.90;;;;;;;;;;10477241;28;20437;-81
2021/11/05 04:02:10;;;;;;;3.03;1.75;;;;;;;;;;10501789;28;20453;-81
2021/11/05 04:07:10;;;;;;;7.32;2.17;;;;;;;;;;10502051;28;20047;-81
2021/11/05 04:12:10;;;;;;;2.77;1.80;;;;;;;;;;10489575;28;20348;-81
2021/11/05 04:17:13;;;;;;;3.22;2.00;;;;;;;;;;10501556;28;20430;-81
2021/11/05 04:22:13;;;;;;;2.47;1.90;;;;;;;;;;10501069;28;20386;-80
2021/11/05 04:27:14;;;;;;;2.42;1.77;;;;;;;;;;10500705;28;20032;-81
2021/11/05 04:32:14;;;;;;;4.10;1.77;;;;;;;;;;10499170;28;20076;-81
2021/11/05 04:37:14;;;;;;;2.30;1.70;;;;;;;;;;10500207;28;20448;-83
2021/11/05 04:42:15;;;;;;;3.00;1.83;;;;;;;;;;10499648;28;20819;-83
2021/11/05 04:47:16;;;;;;;1.83;1.63;;;;;;;;;;10486467;28;20474;-83
2021/11/05 04:52:16;;;;;;;3.17;1.90;;;;;;;;;;10476941;28;20127;-84
2021/11/05 04:57:17;;;;;;;2.10;1.73;;;;;;;;;;10485068;28;20447;-83
2021/11/05 05:02:18;;;;;;;2.50;1.60;;;;;;;;;;10488242;28;20445;-83
2021/11/05 05:07:19;;;;;;;2.38;1.73;;;;;;;;;;10502974;28;20442;-83
2021/11/05 05:12:20;;;;;;;1.73;1.48;;;;;;;;;;10502241;28;20450;-83
2021/11/05 05:17:20;;;;;;;1.52;1.42;;;;;;;;;;10486575;28;20037;-84
2021/11/05 05:22:21;;;;;;;3.78;1.67;;;;;;;;;;10482628;28;20082;-83
2021/11/05 05:27:21;;;;;;;1.97;1.63;;;;;;;;;;10481501;28;20028;-83
2021/11/05 05:32:21;;;;;;;2.20;1.60;;;;;;;;;;10461789;28;20473;-83
2021/11/05 05:37:22;;;;;;;1.67;1.57;;;;;;;;;;10492239;28;20450;-83
2021/11/05 05:42:22;;;;;;;1.73;1.60;;;;;;;;;;10498664;28;20116;-83
2021/11/05 05:47:23;;;;;;;1.95;1.55;;;;;;;;;;10492068;28;20116;-83
2021/11/05 05:52:24;;;;;;;1.47;1.30;;;;;;;;;;10490399;28;20035;-84
2021/11/05 05:57:24;;;;;;;1.52;1.42;;;;;;;;;;10485210;28;20446;-84
2021/11/05 06:02:27;;;;;;;2.03;1.70;;;;;;;;;;10497681;28;20021;-84
2021/11/05 06:07:28;;;;;;;4.53;2.70;;;;;;;;;;10493892;28;20539;-82
2021/11/05 06:12:28;;;;;;;2.83;2.53;;;;;;;;;;10455960;28;20029;-81
2021/11/05 06:17:29;;;;;;;6.90;6.20;;;;;;;;;;10475034;28;20040;-79
2021/11/05 06:22:29;;;;;;;6.73;6.17;;;;;;;;;;10466984;28;20454;-81
2021/11/05 06:27:30;;;;;;;5.70;5.20;;;;;;;;;;10468897;28;20116;-81
2021/11/05 06:32:30;;;;;;;4.70;2.25;;;;;;;;;;10480540;28;20025;-81
2021/11/05 06:37:31;;;;;;;3.15;2.30;;;;;;;;;;10482178;28;20021;-82
2021/11/05 06:42:31;;;;;;;2.67;2.47;;;;;;;;;;10485287;28;20028;-81
2021/11/05 06:47:32;;;;;;;7.60;2.20;;;;;;;;;;10487821;28;20068;-81
2021/11/05 06:52:33;;;;;;;3.25;2.47;;;;;;;;;;10488012;28;20454;-83
2021/11/05 06:57:34;;;;;;;4.53;2.50;;;;;;;;;;10480998;28;20024;-82
2021/11/05 07:02:41;;;;;;;4.75;2.60;;;;;;;;;;10482440;28;20032;-81
2021/11/05 07:07:42;;;;;;;4.30;2.50;;;;;;;;;;10458296;28;20378;-82
2021/11/05 07:12:42;;;;;;;7.30;2.65;;;;;;;;;;10483232;28;20033;-83
2021/11/05 07:17:43;;;;;;;5.68;3.00;;;;;;;;;;10458364;28;20052;-87
2021/11/05 07:22:54;;;;;;;18.90;3.00;;;;;;;;;;10499864;28;20025;-91
2021/11/05 07:28:00;;;;;;;16.75;2.88;;;;;;;;;;10491863;28;20437;-92
2021/11/05 07:33:00;;;;;;;4.07;2.63;;;;;;;;;;10496870;28;20039;-90
2021/11/05 07:38:02;;;;;;;5.38;2.90;;;;;;;;;;10476585;28;20047;-90
2021/11/05 07:43:02;;;;;;;6.07;2.83;;;;;;;;;;10463383;28;20036;-91
2021/11/05 07:48:03;;;;;;;4.33;2.40;;;;;;;;;;10509057;22;20071;-90
2021/11/05 07:53:05;;;;;;;5.07;2.53;;;;;;;;;;10478105;28;20469;-91
2021/11/05 07:58:05;;;;;;;3.05;2.72;;;;;;;;;;10489482;28;20029;-91
2021/11/05 08:03:06;;;;;;;4.25;2.13;;;;;;;;;;10480520;28;20115;-90
2021/11/05 08:08:06;;;;;;;3.85;2.25;;;;;;;;;;10481593;28;20111;-89
2021/11/05 08:13:07;;;;;;;3.40;1.87;;;;;;;;;;10483803;28;20037;-90
2021/11/05 08:18:08;;;;;;;1.70;1.58;;;;;;;;;;10481578;28;20511;-88
2021/11/05 08:23:09;;;;;;;5.32;1.60;;;;;;;;;;10497567;28;20040;-87
2021/11/05 08:28:10;;;;;;;2.00;1.63;;;;;;;;;;10496300;28;20051;-88
2021/11/05 08:33:10;;;;;;;3.00;1.67;;;;;;;;;;10482455;28;20178;-87
2021/11/05 08:38:15;;;;;;;6.28;1.73;;;;;;;;;;10495845;28;20080;-87
2021/11/05 08:43:21;;;;;;;3.03;2.10;;;;;;;;;;10502098;28;20035;-89
2021/11/05 08:48:22;;;;;;;2.75;1.60;;;;;;;;;;10490718;28;20037;-89
2021/11/05 08:53:22;;;;;;;3.92;1.80;;;;;;;;;;10494113;28;20035;-89
2021/11/05 08:58:23;;;;;;;2.33;1.45;;;;;;;;;;10480276;28;20031;-89
2021/11/05 09:03:23;;;;;;;2.42;1.52;;;;;;;;;;10498760;28;20025;-89
2021/11/05 09:08:29;;;;;;;3.13;1.48;;;;;;;;;;10476282;28;20028;-88
2021/11/05 09:13:31;;;;;;;2.33;1.52;;;;;;;;;;10494508;28;20040;-91
2021/11/05 09:18:33;;;;;;;3.60;1.65;;;;;;;;;;10498151;28;20074;-89
2021/11/05 09:23:34;;;;;;;7.63;1.63;;;;;;;;;;10480734;28;20024;-89
2021/11/05 09:28:35;;;;;;;7.45;1.70;;;;;;;;;;10454706;28;20068;-89
2021/11/05 09:33:36;;;;;;;3.13;1.52;;;;;;;;;;10475544;28;20514;-89
2021/11/05 09:38:36;;;;;;;2.45;1.27;;;;;;;;;;10470699;28;20037;-89
2021/11/05 09:43:40;;;;;;;5.50;2.05;;;;;;;;;;10487396;28;20037;-89
2021/11/05 09:48:43;;;;;;;1.30;1.20;;;;;;;;;;10487563;28;20098;-90
2021/11/05 09:53:44;;;;;;;3.78;1.40;;;;;;;;;;10491975;28;20036;-88
2021/11/05 09:58:44;;;;;;;5.70;1.52;;;;;;;;;;10495378;28;20115;-89
2021/11/05 10:03:45;;;;;;;2.33;1.25;;;;;;;;;;10495782;28;20032;-89
2021/11/05 10:08:51;;;;;;;4.32;1.63;;;;;;;;;;10497458;28;20063;-88
2021/11/05 10:13:56;;;;;;;1.98;1.08;;;;;;;;;;10467602;28;20040;-89
2021/11/05 10:19:10;;;;;;;1.70;1.30;;;;;;;;;;10478253;28;20033;-89
2021/11/05 10:24:19;;;;;;;2.88;1.70;;;;;;;;;;10493069;28;20040;-89
2021/11/05 10:29:32;;;;;;;7.43;1.58;;;;;;;;;;10482841;28;20037;-88
2021/11/05 10:35:13;;;;;;;2.95;1.48;;;;;;;;;;10494422;28;20033;-90
2021/11/05 10:40:16;;;;;;;1.58;1.05;;;;;;;;;;10488341;28;20491;-88
2021/11/05 10:45:24;;;;;;;3.67;1.30;;;;;;;;;;10482332;28;20044;-88
2021/11/05 10:50:26;;;;;;;1.35;1.10;;;;;;;;;;10486288;28;20112;-89
2021/11/05 10:55:44;;;;;;;2.20;1.35;;;;;;;;;;10499898;28;20027;-88
2021/11/05 11:00:45;;;;;;;1.45;1.20;;;;;;;;;;10497208;28;20116;-88
2021/11/05 11:05:45;;;;;;;2.78;1.27;;;;;;;;;;10499425;28;20403;-89
2021/11/05 11:10:51;;;;;;;2.92;1.40;;;;;;;;;;10478303;28;20093;-92
2021/11/05 11:15:51;;;;;;;1.88;1.40;;;;;;;;;;10506595;28;20035;-90
2021/11/05 11:20:52;;;;;;;1.63;1.30;;;;;;;;;;10486087;28;20031;-95
2021/11/05 11:25:52;;;;;;;1.90;1.20;;;;;;;;;;10485437;28;20131;-93
2021/11/05 11:30:53;;;;;;;1.40;1.20;;;;;;;;;;10490010;28;20055;-95
2021/11/05 11:35:53;;;;;;;2.70;1.27;;;;;;;;;;10484692;28;20039;-96
2021/11/05 11:41:02;;;;;;;1.55;1.25;;;;;;;;;;10480345;28;20068;-94
2021/11/05 11:46:03;;;;;;;2.78;1.50;;;;;;;;;;10483369;28;20059;-95
2021/11/05 11:51:34;;;;;;;4.05;1.38;;;;;;;;;;10483669;28;20028;-95
2021/11/05 11:56:37;;;;;;;1.42;1.15;;;;;;;;;;10484745;28;20040;-94
2021/11/05 12:01:44;;;;;;;1.95;1.17;;;;;;;;;;10499272;28;20485;-96
2021/11/05 12:06:51;;;;;;;1.33;1.10;;;;;;;;;;10502474;28;20025;-94
2021/11/05 12:12:21;;;;;;;1.67;1.20;;;;;;;;;;10503066;28;20033;-94
2021/11/05 12:17:21;;;;;;;1.38;1.10;;;;;;;;;;10501119;28;20033;-95
2021/11/05 12:22:21;;;;;;;1.67;1.10;;;;;;;;;;10497520;28;20036;-89
2021/11/05 12:27:27;;;;;;;1.50;1.10;;;;;;;;;;10478367;28;20033;-86
2021/11/05 12:32:32;;;;;;;1.30;1.15;;;;;;;;;;10498323;28;20434;-88
2021/11/05 12:37:40;;;;;;;1.85;1.10;;;;;;;;;;10497672;28;20077;-88
2021/11/05 12:42:41;;;;;;;2.45;1.23;;;;;;;;;;10498665;28;20108;-88
2021/11/05 12:47:46;;;;;;;0.88;0.88;;;;;;;;;;10498795;28;20557;-92
2021/11/05 12:52:54;;;;;;;3.83;1.80;;;;;;;;;;10492782;28;20471;-90
2021/11/05 12:57:57;;;;;;;1.38;1.08;;;;;;;;;;10479545;28;20060;-89
2021/11/05 13:03:01;;;;;;;1.20;1.10;;;;;;;;;;10500459;28;20056;-90
2021/11/05 13:08:08;;;;;;;5.72;1.45;;;;;;;;;;10493259;28;20036;-91
2021/11/05 13:13:10;;;;;;;3.17;1.20;;;;;;;;;;10494290;28;20036;-92
2021/11/05 13:18:13;;;;;;;1.23;1.13;;;;;;;;;;10468208;28;20032;-90
2021/11/05 13:23:16;;;;;;;2.95;1.27;;;;;;;;;;10499404;28;20036;-90
2021/11/05 13:28:25;;;;;;;2.13;1.38;;;;;;;;;;10484997;28;20029;-90
2021/11/05 13:33:26;;;;;;;;;;;;;;;;;;10493286;28;20032;-91
2021/11/05 13:38:49;;;;;;;1.65;1.17;;;;;;;;;;10481413;28;19923;-94
2021/11/05 13:43:56;;;;;;;2.60;1.40;;;;;;;;;;10484302;28;20546;-89
2021/11/05 13:49:02;;;;;;;1.42;1.10;;;;;;;;;;10485541;28;20474;-90
2021/11/05 13:54:14;;;;;;;1.30;1.20;;;;;;;;;;10497804;28;20098;-92
2021/11/05 13:59:15;;;;;;;1.30;1.15;;;;;;;;;;10480858;28;20043;-90
2021/11/05 14:04:19;;;;;;;1.33;1.08;;;;;;;;;;10489030;28;20043;-92
2021/11/05 14:09:21;;;;;;;2.00;1.08;;;;;;;;;;10473800;28;20045;-93
2021/11/05 14:14:23;;;;;;;3.80;1.45;;;;;;;;;;10458480;28;20378;-95
2021/11/05 14:19:26;;;;;;;1.88;1.30;;;;;;;;;;10469472;28;20076;-95
2021/11/05 14:24:35;;;;;;;2.75;1.45;;;;;;;;;;10473979;28;20055;-94
2021/11/05 14:29:47;;;;;;;1.83;1.20;;;;;;;;;;10490018;28;20044;-95
2021/11/05 14:34:55;;;;;;;2.85;1.35;;;;;;;;;;10468748;28;20431;-93
2021/11/05 14:40:00;;;;;;;2.60;1.30;;;;;;;;;;10461097;28;20032;-95
2021/11/05 14:45:03;;;;;;;1.88;1.20;;;;;;;;;;10490846;28;20045;-91
2021/11/05 14:50:27;;;;;;;1.60;1.13;;;;;;;;;;10496338;28;20393;-90
2021/11/05 14:55:45;;;;;;;4.43;1.27;;;;;;;;;;10471538;28;20031;-91
2021/11/05 15:01:03;;;;;;;2.22;1.35;;;;;;;;;;10496565;28;20416;-94
2021/11/05 15:06:03;;;;;;;2.27;1.20;;;;;;;;;;10482499;28;20450;-91
2021/11/05 15:11:06;;;;;;;2.00;1.07;;;;;;;;;;10478715;28;20029;-94
2021/11/05 15:16:09;;;;;;;3.72;1.52;;;;;;;;;;10480700;28;20032;-94
2021/11/05 15:21:11;;;;;;;3.22;1.50;;;;;;;;;;10461689;28;20070;-93
2021/11/05 15:26:14;;;;;;;5.82;1.83;;;;;;;;;;10471102;28;20048;-94
2021/11/05 15:31:15;;;;;;;9.00;1.92;;;;;;;;;;10471410;28;20063;-93
2021/11/05 15:36:16;;;;;;;7.82;2.42;;;;;;;;;;10475049;28;20029;-94
2021/11/05 15:41:17;;;;;;;12.57;2.33;;;;;;;;;;10494466;28;20028;-93
2021/11/05 15:46:17;;;;;;;10.85;1.90;;;;;;;;;;10470602;28;20143;-92
2021/11/05 15:51:18;;;;;;;11.65;2.13;;;;;;;;;;10479286;28;20033;-91
2021/11/05 15:56:18;;;;;;;11.60;2.35;;;;;;;;;;10476415;28;20028;-93
2021/11/05 16:01:19;;;;;;;16.50;2.13;;;;;;;;;;10485595;28;20045;-94
2021/11/05 16:06:20;;;;;;;6.05;2.05;;;;;;;;;;10485844;28;20043;-92
2021/11/05 16:11:20;;;;;;;10.63;2.43;;;;;;;;;;10494480;28;20037;-93
2021/11/05 16:16:21;;;;;;;7.23;2.30;;;;;;;;;;10480417;28;20120;-91
2021/11/05 16:21:22;;;;;;;12.32;2.47;;;;;;;;;;10502479;28;20470;-93
2021/11/05 16:26:22;;;;;;;6.38;1.80;;;;;;;;;;10485147;28;20028;-92
2021/11/05 16:31:22;;;;;;;10.35;2.30;;;;;;;;;;10482471;28;20033;-94
2021/11/05 16:36:23;;;;;;;6.30;2.70;;;;;;;;;;10483744;28;20127;-92
2021/11/05 16:41:23;;;;;;;12.13;2.67;;;;;;;;;;10484253;28;20488;-94
2021/11/05 16:46:24;;;;;;;7.15;2.15;;;;;;;;;;10485201;28;20045;-93
2021/11/05 16:51:28;;;;;;;8.68;1.73;;;;;;;;;;10483746;28;20029;-92
2021/11/05 16:56:29;;;;;;;7.32;2.10;;;;;;;;;;10501265;28;20119;-92
2021/11/05 17:01:30;;;;;;;5.68;2.30;;;;;;;;;;10483968;28;20024;-91
2021/11/05 17:06:31;;;;;;;4.60;1.90;;;;;;;;;;10475599;28;20037;-91
2021/11/05 17:11:32;;;;;;;6.72;1.67;;;;;;;;;;10482523;28;20036;-94
2021/11/05 17:16:32;;;;;;;7.65;2.10;;;;;;;;;;10484096;28;20124;-92
2021/11/05 17:21:33;;;;;;;9.35;1.90;;;;;;;;;;10484919;28;20020;-93
2021/11/05 17:26:35;;;;;;;3.63;1.80;;;;;;;;;;10488504;28;20076;-93
2021/11/05 17:31:36;;;;;;;5.73;2.00;;;;;;;;;;10481746;28;20052;-93
2021/11/05 17:36:37;;;;;;;4.07;1.75;;;;;;;;;;10485813;28;20470;-93
2021/11/05 17:41:38;;;;;;;2.60;1.80;;;;;;;;;;10486035;28;20052;-89
2021/11/05 17:46:39;;;;;;;8.98;2.20;;;;;;;;;;10466264;28;20491;-90
2021/11/05 17:51:41;;;;;;;6.13;1.67;;;;;;;;;;10460706;28;20100;-93
2021/11/05 17:56:42;;;;;;;5.32;1.90;;;;;;;;;;10495261;28;20040;-95
2021/11/05 18:01:43;;;;;;;8.15;2.08;;;;;;;;;;10473307;28;20077;-95
2021/11/05 18:06:44;;;;;;;10.13;1.83;;;;;;;;;;10480930;28;20028;-93
2021/11/05 18:11:45;;;;;;;6.10;2.23;;;;;;;;;;10481410;28;20028;-96
2021/11/05 18:16:46;;;;;;;6.90;2.60;;;;;;;;;;10481447;28;20462;-90
2021/11/05 18:21:47;;;;;;;4.65;2.40;;;;;;;;;;10512220;28;20028;-92
2021/11/05 18:26:48;;;;;;;7.10;2.33;;;;;;;;;;10486218;28;20028;-96
2021/11/05 18:31:56;;;;;;;12.25;2.85;;;;;;;;;;10491917;28;20327;-95
2021/11/05 18:36:57;;;;;;;4.50;2.20;;;;;;;;;;10517856;28;20082;-95
2021/11/05 18:42:02;;;;;;;6.53;2.42;;;;;;;;;;10498470;28;20121;-92
2021/11/05 18:47:03;;;;;;;5.47;2.45;;;;;;;;;;10480806;28;20048;-91
2021/11/05 18:52:06;;;;;;;12.55;2.78;;;;;;;;;;10504411;28;20028;-93
2021/11/05 18:57:07;;;;;;;8.93;2.63;;;;;;;;;;10503899;28;20048;-92
2021/11/05 19:02:08;;;;;;;23.13;4.45;;;;;;;;;;10496394;28;20033;-91
2021/11/05 19:07:09;;;;;;;17.50;4.30;;;;;;;;;;10471425;28;21479;-91
2021/11/05 19:12:10;;;;;;;11.60;3.53;;;;;;;;;;10493982;28;20037;-96
2021/11/05 19:17:10;;;;;;;11.25;3.55;;;;;;;;;;10503453;28;20068;-94
2021/11/05 19:22:11;;;;;;;10.35;3.50;;;;;;;;;;10497243;28;20032;-95
2021/11/05 19:27:14;;;;;;;8.95;3.40;;;;;;;;;;10491997;28;20040;-94
2021/11/05 19:32:15;;;;;;;7.15;3.33;;;;;;;;;;10505512;28;20035;-94
2021/11/05 19:37:17;;;;;;;11.93;3.45;;;;;;;;;;10504034;28;20507;-93
2021/11/05 19:42:18;;;;;;;10.88;3.60;;;;;;;;;;10483989;28;20020;-92
2021/11/05 19:47:18;;;;;;;6.97;3.30;;;;;;;;;;10494561;22;20791;-92
2021/11/05 19:52:19;;;;;;;13.32;3.22;;;;;;;;;;10477470;28;20029;-92
2021/11/05 19:57:20;;;;;;;10.85;3.40;;;;;;;;;;10473328;28;20124;-94
2021/11/05 20:02:21;;;;;;;6.95;3.13;;;;;;;;;;10495758;28;20236;-93
2021/11/05 20:07:22;;;;;;;8.75;3.15;;;;;;;;;;10483537;28;20040;-92
2021/11/05 20:12:23;;;;;;;5.90;3.30;;;;;;;;;;10483929;28;20032;-94
2021/11/05 20:17:24;;;;;;;9.43;2.85;;;;;;;;;;10484622;28;20036;-92
2021/11/05 20:22:25;;;;;;;4.47;2.70;;;;;;;;;;10483006;28;20477;-91
2021/11/05 20:27:25;;;;;;;8.95;3.05;;;;;;;;;;10474862;28;20033;-92
2021/11/05 20:32:26;;;;;;;4.95;3.03;;;;;;;;;;10477458;28;20028;-95
2021/11/05 20:37:27;;;;;;;5.70;2.80;;;;;;;;;;10483212;28;20037;-92
2021/11/05 20:42:43;;;;;;;6.53;2.78;;;;;;;;;;10500983;28;20029;-95
2021/11/05 20:48:01;;;;;;;8.32;2.85;;;;;;;;;;10507001;28;20053;-96
2021/11/05 20:53:11;;;;;;;7.78;3.28;;;;;;;;;;10501919;28;20033;-96
2021/11/05 20:58:12;;;;;;;5.22;3.05;;;;;;;;;;10503781;28;20463;-95
2021/11/05 21:03:15;;;;;;;10.27;3.25;;;;;;;;;;10511703;28;20036;-96
2021/11/05 21:08:19;;;;;;;13.38;3.30;;;;;;;;;;10505023;28;20032;-96
2021/11/05 21:13:20;;;;;;;5.30;2.80;;;;;;;;;;10521718;28;20076;-89
2021/11/05 21:18:20;;;;;;;15.40;2.83;;;;;;;;;;10511040;28;20059;-95
2021/11/05 21:23:21;;;;;;;8.05;2.67;;;;;;;;;;10504652;28;20024;-96
2021/11/05 21:28:21;;;;;;;7.28;2.80;;;;;;;;;;10504218;28;20029;-96
2021/11/05 21:33:23;;;;;;;10.20;2.97;;;;;;;;;;10493857;28;20021;-94
2021/11/05 21:38:24;;;;;;;10.25;2.92;;;;;;;;;;10510332;28;20461;-93
2021/11/05 21:43:25;;;;;;;5.60;2.80;;;;;;;;;;10510234;28;20024;-94
2021/11/05 21:48:26;;;;;;;9.13;2.70;;;;;;;;;;10503813;28;20056;-96
2021/11/05 21:53:29;;;;;;;5.63;3.10;;;;;;;;;;10499246;28;20040;-96
2021/11/05 21:58:31;;;;;;;5.10;3.08;;;;;;;;;;10508404;28;20033;-96
2021/11/05 22:03:33;;;;;;;7.00;2.63;;;;;;;;;;10501430;28;20021;-95
2021/11/05 22:08:36;;;;;;;7.53;2.70;;;;;;;;;;10512258;28;20044;-94
2021/11/05 22:13:37;;;;;;;6.65;2.80;;;;;;;;;;10481608;28;20028;-95
2021/11/05 22:18:38;;;;;;;5.40;2.72;;;;;;;;;;10503493;28;20032;-88
2021/11/05 22:23:39;;;;;;;5.35;3.40;;;;;;;;;;10499504;28;20028;-90
2021/11/05 22:28:39;;;;;;;10.80;2.92;;;;;;;;;;10495884;28;20374;-91
2021/11/05 22:33:40;;;;;;;11.83;3.23;;;;;;;;;;10476209;28;20078;-94
2021/11/05 22:38:40;;;;;;;10.10;3.00;;;;;;;;;;10479514;28;20830;-93
2021/11/05 22:43:41;;;;;;;8.82;3.50;;;;;;;;;;10466652;28;20221;-92
2021/11/05 22:48:41;;;;;;;13.73;3.20;;;;;;;;;;10492210;28;20455;-92
2021/11/05 22:53:43;;;;;;;12.60;2.90;;;;;;;;;;10476116;28;20468;-93
2021/11/05 22:58:43;;;;;;;12.10;3.17;;;;;;;;;;10479531;28;20469;-93
2021/11/05 23:03:44;;;;;;;9.77;2.40;;;;;;;;;;10485477;28;20039;-94
2021/11/05 23:08:45;;;;;;;9.70;2.90;;;;;;;;;;10480342;28;20090;-93
2021/11/05 23:13:47;;;;;;;11.98;3.17;;;;;;;;;;10487775;28;20024;-93
2021/11/05 23:18:47;;;;;;;8.23;2.80;;;;;;;;;;10485432;28;20036;-94
2021/11/05 23:23:47;;;;;;;6.90;2.97;;;;;;;;;;10474694;28;20051;-95
2021/11/05 23:28:48;;;;;;;5.05;3.05;;;;;;;;;;10478945;28;20032;-93
2021/11/05 23:33:51;;;;;;;11.55;2.92;;;;;;;;;;10467610;28;20488;-91
2021/11/05 23:38:51;;;;;;;6.22;2.78;;;;;;;;;;10474620;28;20036;-93
2021/11/05 23:43:53;;;;;;;8.13;2.70;;;;;;;;;;10468594;28;20055;-93
2021/11/05 23:48:54;;;;;;;5.85;2.55;;;;;;;;;;10479446;28;20037;-93
2021/11/05 23:53:55;;;;;;;5.97;2.67;;;;;;;;;;10499834;28;20033;-92
2021/11/05 23:58:56;;;;;;;7.70;2.28;;;;;;;;;;10480229;28;20052;-89
